sensor_id;sensor_type;location;lat;lon;timestamp;P1;durP1;ratioP1;P2;durP2;ratioP2
51384;SDS011;37478;55.682;37.462;2023-05-10T00:01:51;10.10;;;5.10;;
51384;SDS011;37478;55.682;37.462;2023-05-10T00:04:16;14.75;;;5.15;;
51384;SDS011;37478;55.682;37.462;2023-05-10T00:06:41;7.07;;;4.65;;
51384;SDS011;37478;55.682;37.462;2023-05-10T00:09:07;7.47;;;4.38;;
51384;SDS011;37478;55.682;37.462;2023-05-10T00:11:32;10.00;;;4.57;;
51384;SDS011;37478;55.682;37.462;2023-05-10T00:13:57;8.70;;;4.90;;
51384;SDS011;37478;55.682;37.462;2023-05-10T00:16:23;10.70;;;5.10;;
51384;SDS011;37478;55.682;37.462;2023-05-10T00:18:48;9.38;;;5.13;;
51384;SDS011;37478;55.682;37.462;2023-05-10T00:21:13;11.30;;;5.60;;
51384;SDS011;37478;55.682;37.462;2023-05-10T00:23:39;10.25;;;5.30;;
51384;SDS011;37478;55.682;37.462;2023-05-10T00:26:04;8.57;;;5.18;;
51384;SDS011;37478;55.682;37.462;2023-05-10T00:28:29;8.38;;;5.05;;
51384;SDS011;37478;55.682;37.462;2023-05-10T00:30:55;17.58;;;5.32;;
51384;SDS011;37478;55.682;37.462;2023-05-10T00:33:20;11.80;;;4.72;;
51384;SDS011;37478;55.682;37.462;2023-05-10T00:35:46;11.82;;;4.80;;
51384;SDS011;37478;55.682;37.462;2023-05-10T00:38:11;13.77;;;4.43;;
51384;SDS011;37478;55.682;37.462;2023-05-10T00:40:36;8.32;;;4.70;;
51384;SDS011;37478;55.682;37.462;2023-05-10T00:43:02;11.70;;;5.90;;
51384;SDS011;37478;55.682;37.462;2023-05-10T00:45:28;8.45;;;4.60;;
51384;SDS011;37478;55.682;37.462;2023-05-10T00:47:54;8.45;;;4.30;;
51384;SDS011;37478;55.682;37.462;2023-05-10T00:50:21;5.97;;;3.85;;
51384;SDS011;37478;55.682;37.462;2023-05-10T00:52:47;11.90;;;4.82;;
51384;SDS011;37478;55.682;37.462;2023-05-10T00:55:12;6.10;;;4.05;;
51384;SDS011;37478;55.682;37.462;2023-05-10T00:57:38;11.60;;;4.95;;
51384;SDS011;37478;55.682;37.462;2023-05-10T01:00:03;6.75;;;3.92;;
51384;SDS011;37478;55.682;37.462;2023-05-10T01:02:29;8.77;;;4.38;;
51384;SDS011;37478;55.682;37.462;2023-05-10T01:04:54;10.07;;;4.38;;
51384;SDS011;37478;55.682;37.462;2023-05-10T01:07:20;8.00;;;4.05;;
51384;SDS011;37478;55.682;37.462;2023-05-10T01:09:45;7.20;;;4.07;;
51384;SDS011;37478;55.682;37.462;2023-05-10T01:12:11;9.00;;;4.13;;
51384;SDS011;37478;55.682;37.462;2023-05-10T01:14:36;10.18;;;5.18;;
51384;SDS011;37478;55.682;37.462;2023-05-10T01:17:02;7.05;;;4.70;;
51384;SDS011;37478;55.682;37.462;2023-05-10T01:19:29;9.48;;;3.65;;
51384;SDS011;37478;55.682;37.462;2023-05-10T01:29:42;6.80;;;3.85;;
51384;SDS011;37478;55.682;37.462;2023-05-10T01:37:20;9.13;;;4.00;;
51384;SDS011;37478;55.682;37.462;2023-05-10T01:45:18;6.13;;;3.70;;
51384;SDS011;37478;55.682;37.462;2023-05-10T01:47:50;6.47;;;3.28;;
51384;SDS011;37478;55.682;37.462;2023-05-10T01:50:18;6.25;;;3.72;;
51384;SDS011;37478;55.682;37.462;2023-05-10T01:52:44;6.95;;;4.13;;
51384;SDS011;37478;55.682;37.462;2023-05-10T01:55:14;7.63;;;3.72;;
51384;SDS011;37478;55.682;37.462;2023-05-10T01:57:40;6.95;;;4.07;;
51384;SDS011;37478;55.682;37.462;2023-05-10T02:00:07;6.07;;;3.53;;
51384;SDS011;37478;55.682;37.462;2023-05-10T02:02:37;5.72;;;3.72;;
51384;SDS011;37478;55.682;37.462;2023-05-10T02:05:04;10.82;;;2.97;;
51384;SDS011;37478;55.682;37.462;2023-05-10T02:07:30;9.60;;;4.38;;
51384;SDS011;37478;55.682;37.462;2023-05-10T02:09:57;7.07;;;3.33;;
51384;SDS011;37478;55.682;37.462;2023-05-10T02:12:23;4.35;;;3.08;;
51384;SDS011;37478;55.682;37.462;2023-05-10T02:14:49;6.00;;;3.33;;
51384;SDS011;37478;55.682;37.462;2023-05-10T02:17:16;10.23;;;4.05;;
51384;SDS011;37478;55.682;37.462;2023-05-10T02:19:41;5.50;;;2.97;;
51384;SDS011;37478;55.682;37.462;2023-05-10T02:22:08;3.72;;;2.40;;
51384;SDS011;37478;55.682;37.462;2023-05-10T02:24:33;6.78;;;3.88;;
51384;SDS011;37478;55.682;37.462;2023-05-10T02:26:59;7.60;;;2.95;;
51384;SDS011;37478;55.682;37.462;2023-05-10T02:29:25;6.25;;;3.10;;
51384;SDS011;37478;55.682;37.462;2023-05-10T02:31:52;7.10;;;3.60;;
51384;SDS011;37478;55.682;37.462;2023-05-10T02:34:19;5.47;;;3.65;;
51384;SDS011;37478;55.682;37.462;2023-05-10T02:36:45;5.65;;;3.67;;
51384;SDS011;37478;55.682;37.462;2023-05-10T02:39:10;5.35;;;3.10;;
51384;SDS011;37478;55.682;37.462;2023-05-10T02:41:37;6.65;;;3.25;;
51384;SDS011;37478;55.682;37.462;2023-05-10T02:44:04;7.35;;;3.25;;
51384;SDS011;37478;55.682;37.462;2023-05-10T02:46:31;7.90;;;3.70;;
51384;SDS011;37478;55.682;37.462;2023-05-10T02:48:57;8.65;;;3.42;;
51384;SDS011;37478;55.682;37.462;2023-05-10T02:51:24;6.63;;;3.53;;
51384;SDS011;37478;55.682;37.462;2023-05-10T02:53:50;6.38;;;3.53;;
51384;SDS011;37478;55.682;37.462;2023-05-10T02:56:22;7.45;;;3.17;;
51384;SDS011;37478;55.682;37.462;2023-05-10T02:58:48;6.45;;;3.67;;
51384;SDS011;37478;55.682;37.462;2023-05-10T03:01:13;7.07;;;3.13;;
51384;SDS011;37478;55.682;37.462;2023-05-10T03:03:39;8.73;;;3.90;;
51384;SDS011;37478;55.682;37.462;2023-05-10T03:06:04;5.03;;;3.72;;
51384;SDS011;37478;55.682;37.462;2023-05-10T03:08:30;5.82;;;3.38;;
51384;SDS011;37478;55.682;37.462;2023-05-10T03:10:59;7.20;;;3.20;;
51384;SDS011;37478;55.682;37.462;2023-05-10T03:16:10;4.97;;;2.90;;
51384;SDS011;37478;55.682;37.462;2023-05-10T03:18:41;7.57;;;3.72;;
51384;SDS011;37478;55.682;37.462;2023-05-10T03:21:07;4.88;;;2.85;;
51384;SDS011;37478;55.682;37.462;2023-05-10T03:26:05;8.10;;;3.50;;
51384;SDS011;37478;55.682;37.462;2023-05-10T03:28:31;7.07;;;3.72;;
51384;SDS011;37478;55.682;37.462;2023-05-10T03:30:58;8.52;;;2.92;;
51384;SDS011;37478;55.682;37.462;2023-05-10T03:33:23;8.75;;;3.10;;
51384;SDS011;37478;55.682;37.462;2023-05-10T03:35:49;4.65;;;3.08;;
51384;SDS011;37478;55.682;37.462;2023-05-10T03:38:14;6.13;;;3.28;;
51384;SDS011;37478;55.682;37.462;2023-05-10T03:40:39;8.27;;;4.35;;
51384;SDS011;37478;55.682;37.462;2023-05-10T03:43:05;8.05;;;3.58;;
51384;SDS011;37478;55.682;37.462;2023-05-10T03:45:30;22.08;;;4.32;;
51384;SDS011;37478;55.682;37.462;2023-05-10T03:47:56;5.45;;;3.38;;
51384;SDS011;37478;55.682;37.462;2023-05-10T03:50:22;6.88;;;3.65;;
51384;SDS011;37478;55.682;37.462;2023-05-10T03:52:47;6.63;;;4.10;;
51384;SDS011;37478;55.682;37.462;2023-05-10T03:55:13;5.53;;;3.58;;
51384;SDS011;37478;55.682;37.462;2023-05-10T03:57:38;9.25;;;3.67;;
51384;SDS011;37478;55.682;37.462;2023-05-10T04:00:03;5.40;;;3.13;;
51384;SDS011;37478;55.682;37.462;2023-05-10T04:02:29;8.02;;;3.65;;
51384;SDS011;37478;55.682;37.462;2023-05-10T04:04:55;4.88;;;3.03;;
51384;SDS011;37478;55.682;37.462;2023-05-10T04:07:20;5.68;;;3.40;;
51384;SDS011;37478;55.682;37.462;2023-05-10T04:09:46;4.38;;;3.05;;
51384;SDS011;37478;55.682;37.462;2023-05-10T04:12:11;7.63;;;3.10;;
51384;SDS011;37478;55.682;37.462;2023-05-10T04:14:37;6.97;;;3.08;;
51384;SDS011;37478;55.682;37.462;2023-05-10T04:17:02;5.47;;;3.30;;
51384;SDS011;37478;55.682;37.462;2023-05-10T04:19:30;7.47;;;3.35;;
51384;SDS011;37478;55.682;37.462;2023-05-10T04:21:55;17.08;;;8.95;;
51384;SDS011;37478;55.682;37.462;2023-05-10T04:24:21;11.85;;;3.78;;
51384;SDS011;37478;55.682;37.462;2023-05-10T04:26:46;7.53;;;3.72;;
51384;SDS011;37478;55.682;37.462;2023-05-10T04:29:11;8.93;;;3.75;;
51384;SDS011;37478;55.682;37.462;2023-05-10T04:31:37;7.00;;;4.82;;
51384;SDS011;37478;55.682;37.462;2023-05-10T04:34:02;7.47;;;4.25;;
51384;SDS011;37478;55.682;37.462;2023-05-10T04:36:28;5.22;;;3.50;;
51384;SDS011;37478;55.682;37.462;2023-05-10T04:38:53;6.43;;;3.97;;
51384;SDS011;37478;55.682;37.462;2023-05-10T04:41:19;7.70;;;3.25;;
51384;SDS011;37478;55.682;37.462;2023-05-10T04:43:45;10.07;;;3.58;;
51384;SDS011;37478;55.682;37.462;2023-05-10T04:46:11;10.63;;;4.07;;
51384;SDS011;37478;55.682;37.462;2023-05-10T04:48:36;6.43;;;3.78;;
51384;SDS011;37478;55.682;37.462;2023-05-10T04:51:01;16.33;;;4.47;;
51384;SDS011;37478;55.682;37.462;2023-05-10T04:53:28;9.15;;;3.55;;
51384;SDS011;37478;55.682;37.462;2023-05-10T04:55:54;7.15;;;3.55;;
51384;SDS011;37478;55.682;37.462;2023-05-10T04:58:21;11.98;;;4.28;;
51384;SDS011;37478;55.682;37.462;2023-05-10T05:00:49;12.38;;;5.55;;
51384;SDS011;37478;55.682;37.462;2023-05-10T05:03:14;10.80;;;4.30;;
51384;SDS011;37478;55.682;37.462;2023-05-10T05:05:40;8.02;;;4.53;;
51384;SDS011;37478;55.682;37.462;2023-05-10T05:08:05;18.63;;;5.22;;
51384;SDS011;37478;55.682;37.462;2023-05-10T05:10:30;10.15;;;3.45;;
51384;SDS011;37478;55.682;37.462;2023-05-10T05:12:56;16.52;;;5.75;;
51384;SDS011;37478;55.682;37.462;2023-05-10T05:15:21;19.33;;;5.43;;
51384;SDS011;37478;55.682;37.462;2023-05-10T05:17:46;13.85;;;4.07;;
51384;SDS011;37478;55.682;37.462;2023-05-10T05:20:12;6.40;;;3.10;;
51384;SDS011;37478;55.682;37.462;2023-05-10T05:22:38;15.80;;;4.32;;
51384;SDS011;37478;55.682;37.462;2023-05-10T05:25:03;10.15;;;3.17;;
51384;SDS011;37478;55.682;37.462;2023-05-10T05:27:29;11.88;;;4.05;;
51384;SDS011;37478;55.682;37.462;2023-05-10T05:29:55;8.77;;;3.67;;
51384;SDS011;37478;55.682;37.462;2023-05-10T05:32:20;9.75;;;4.13;;
51384;SDS011;37478;55.682;37.462;2023-05-10T05:34:45;10.82;;;3.35;;
51384;SDS011;37478;55.682;37.462;2023-05-10T05:37:18;9.23;;;3.88;;
51384;SDS011;37478;55.682;37.462;2023-05-10T05:39:44;5.47;;;3.03;;
51384;SDS011;37478;55.682;37.462;2023-05-10T05:42:09;13.18;;;3.80;;
51384;SDS011;37478;55.682;37.462;2023-05-10T05:44:35;14.20;;;3.10;;
51384;SDS011;37478;55.682;37.462;2023-05-10T05:47:00;6.63;;;3.05;;
51384;SDS011;37478;55.682;37.462;2023-05-10T05:49:25;6.45;;;2.97;;
51384;SDS011;37478;55.682;37.462;2023-05-10T05:51:51;12.23;;;3.88;;
51384;SDS011;37478;55.682;37.462;2023-05-10T05:54:16;5.13;;;2.58;;
51384;SDS011;37478;55.682;37.462;2023-05-10T05:56:41;8.10;;;2.92;;
51384;SDS011;37478;55.682;37.462;2023-05-10T05:59:07;6.38;;;2.97;;
51384;SDS011;37478;55.682;37.462;2023-05-10T06:01:32;3.65;;;2.20;;
51384;SDS011;37478;55.682;37.462;2023-05-10T06:03:58;7.10;;;3.72;;
51384;SDS011;37478;55.682;37.462;2023-05-10T06:06:23;8.88;;;2.95;;
51384;SDS011;37478;55.682;37.462;2023-05-10T06:08:48;4.75;;;2.45;;
51384;SDS011;37478;55.682;37.462;2023-05-10T06:11:14;4.70;;;2.67;;
51384;SDS011;37478;55.682;37.462;2023-05-10T06:13:39;12.60;;;2.63;;
51384;SDS011;37478;55.682;37.462;2023-05-10T06:16:05;6.13;;;3.03;;
51384;SDS011;37478;55.682;37.462;2023-05-10T06:18:30;4.30;;;2.65;;
51384;SDS011;37478;55.682;37.462;2023-05-10T06:20:56;5.30;;;2.10;;
51384;SDS011;37478;55.682;37.462;2023-05-10T06:23:21;5.80;;;2.78;;
51384;SDS011;37478;55.682;37.462;2023-05-10T06:25:47;8.20;;;2.50;;
51384;SDS011;37478;55.682;37.462;2023-05-10T06:28:12;8.07;;;2.80;;
51384;SDS011;37478;55.682;37.462;2023-05-10T06:30:38;3.90;;;2.10;;
51384;SDS011;37478;55.682;37.462;2023-05-10T06:33:03;4.13;;;2.00;;
51384;SDS011;37478;55.682;37.462;2023-05-10T06:35:28;5.53;;;2.55;;
51384;SDS011;37478;55.682;37.462;2023-05-10T06:37:54;2.42;;;2.03;;
51384;SDS011;37478;55.682;37.462;2023-05-10T06:40:19;7.55;;;2.47;;
51384;SDS011;37478;55.682;37.462;2023-05-10T06:42:45;2.47;;;1.83;;
51384;SDS011;37478;55.682;37.462;2023-05-10T06:45:11;5.80;;;2.40;;
51384;SDS011;37478;55.682;37.462;2023-05-10T06:47:36;6.40;;;2.10;;
51384;SDS011;37478;55.682;37.462;2023-05-10T06:50:02;3.88;;;2.45;;
51384;SDS011;37478;55.682;37.462;2023-05-10T06:52:28;3.33;;;2.03;;
51384;SDS011;37478;55.682;37.462;2023-05-10T06:54:53;5.30;;;2.25;;
51384;SDS011;37478;55.682;37.462;2023-05-10T06:57:18;3.42;;;2.55;;
51384;SDS011;37478;55.682;37.462;2023-05-10T06:59:44;7.78;;;2.58;;
51384;SDS011;37478;55.682;37.462;2023-05-10T07:02:09;6.18;;;2.75;;
51384;SDS011;37478;55.682;37.462;2023-05-10T07:04:35;8.98;;;2.35;;
51384;SDS011;37478;55.682;37.462;2023-05-10T07:07:00;5.65;;;2.45;;
51384;SDS011;37478;55.682;37.462;2023-05-10T07:09:25;7.72;;;2.63;;
51384;SDS011;37478;55.682;37.462;2023-05-10T07:11:51;5.55;;;2.90;;
51384;SDS011;37478;55.682;37.462;2023-05-10T07:14:16;20.42;;;4.63;;
51384;SDS011;37478;55.682;37.462;2023-05-10T07:16:42;6.15;;;2.70;;
51384;SDS011;37478;55.682;37.462;2023-05-10T07:19:07;3.78;;;2.00;;
51384;SDS011;37478;55.682;37.462;2023-05-10T07:21:32;8.40;;;2.65;;
51384;SDS011;37478;55.682;37.462;2023-05-10T07:23:58;8.93;;;2.72;;
51384;SDS011;37478;55.682;37.462;2023-05-10T07:26:23;4.72;;;2.10;;
51384;SDS011;37478;55.682;37.462;2023-05-10T07:28:49;5.05;;;2.45;;
51384;SDS011;37478;55.682;37.462;2023-05-10T07:31:14;2.92;;;2.38;;
51384;SDS011;37478;55.682;37.462;2023-05-10T07:33:39;2.95;;;2.08;;
51384;SDS011;37478;55.682;37.462;2023-05-10T07:36:05;5.07;;;2.53;;
51384;SDS011;37478;55.682;37.462;2023-05-10T07:38:30;3.47;;;2.25;;
51384;SDS011;37478;55.682;37.462;2023-05-10T07:40:56;4.65;;;3.03;;
51384;SDS011;37478;55.682;37.462;2023-05-10T07:43:21;5.35;;;2.67;;
51384;SDS011;37478;55.682;37.462;2023-05-10T07:45:47;9.98;;;2.53;;
51384;SDS011;37478;55.682;37.462;2023-05-10T07:48:12;4.78;;;2.67;;
51384;SDS011;37478;55.682;37.462;2023-05-10T07:50:37;8.80;;;2.88;;
51384;SDS011;37478;55.682;37.462;2023-05-10T07:53:03;8.15;;;2.70;;
51384;SDS011;37478;55.682;37.462;2023-05-10T07:55:28;7.95;;;2.60;;
51384;SDS011;37478;55.682;37.462;2023-05-10T07:57:53;8.57;;;3.15;;
51384;SDS011;37478;55.682;37.462;2023-05-10T08:00:19;5.65;;;2.40;;
51384;SDS011;37478;55.682;37.462;2023-05-10T08:02:44;9.75;;;3.00;;
51384;SDS011;37478;55.682;37.462;2023-05-10T08:05:10;3.10;;;2.25;;
51384;SDS011;37478;55.682;37.462;2023-05-10T08:07:35;5.35;;;2.35;;
51384;SDS011;37478;55.682;37.462;2023-05-10T08:10:01;3.85;;;2.83;;
51384;SDS011;37478;55.682;37.462;2023-05-10T08:12:26;2.50;;;2.00;;
51384;SDS011;37478;55.682;37.462;2023-05-10T08:14:52;3.38;;;2.42;;
51384;SDS011;37478;55.682;37.462;2023-05-10T08:17:17;9.15;;;2.60;;
51384;SDS011;37478;55.682;37.462;2023-05-10T08:19:42;11.75;;;3.00;;
51384;SDS011;37478;55.682;37.462;2023-05-10T08:22:07;5.50;;;2.80;;
51384;SDS011;37478;55.682;37.462;2023-05-10T08:24:33;4.60;;;2.60;;
51384;SDS011;37478;55.682;37.462;2023-05-10T08:27:03;3.15;;;2.38;;
51384;SDS011;37478;55.682;37.462;2023-05-10T08:29:28;4.93;;;2.70;;
51384;SDS011;37478;55.682;37.462;2023-05-10T08:31:53;5.47;;;2.80;;
51384;SDS011;37478;55.682;37.462;2023-05-10T08:34:19;3.28;;;1.90;;
51384;SDS011;37478;55.682;37.462;2023-05-10T08:36:44;3.85;;;2.08;;
51384;SDS011;37478;55.682;37.462;2023-05-10T08:39:09;5.40;;;2.60;;
51384;SDS011;37478;55.682;37.462;2023-05-10T08:41:34;5.70;;;2.75;;
51384;SDS011;37478;55.682;37.462;2023-05-10T08:44:02;4.65;;;2.50;;
51384;SDS011;37478;55.682;37.462;2023-05-10T08:46:28;7.78;;;2.35;;
51384;SDS011;37478;55.682;37.462;2023-05-10T08:48:55;3.55;;;2.35;;
51384;SDS011;37478;55.682;37.462;2023-05-10T08:51:22;3.58;;;2.15;;
51384;SDS011;37478;55.682;37.462;2023-05-10T08:53:48;4.95;;;2.05;;
51384;SDS011;37478;55.682;37.462;2023-05-10T08:56:15;2.58;;;2.10;;
51384;SDS011;37478;55.682;37.462;2023-05-10T08:58:40;3.20;;;1.95;;
51384;SDS011;37478;55.682;37.462;2023-05-10T09:01:06;5.03;;;2.85;;
51384;SDS011;37478;55.682;37.462;2023-05-10T09:03:32;3.15;;;2.28;;
51384;SDS011;37478;55.682;37.462;2023-05-10T09:05:57;3.35;;;2.22;;
51384;SDS011;37478;55.682;37.462;2023-05-10T09:08:23;4.60;;;2.50;;
51384;SDS011;37478;55.682;37.462;2023-05-10T09:10:51;2.58;;;2.10;;
51384;SDS011;37478;55.682;37.462;2023-05-10T09:13:16;2.78;;;2.15;;
51384;SDS011;37478;55.682;37.462;2023-05-10T09:15:42;5.38;;;2.35;;
51384;SDS011;37478;55.682;37.462;2023-05-10T09:18:08;1.92;;;1.67;;
51384;SDS011;37478;55.682;37.462;2023-05-10T09:20:33;5.10;;;2.28;;
51384;SDS011;37478;55.682;37.462;2023-05-10T09:22:58;3.40;;;1.70;;
51384;SDS011;37478;55.682;37.462;2023-05-10T09:25:24;4.82;;;2.50;;
51384;SDS011;37478;55.682;37.462;2023-05-10T09:27:49;5.50;;;1.92;;
51384;SDS011;37478;55.682;37.462;2023-05-10T09:30:24;3.13;;;2.20;;
51384;SDS011;37478;55.682;37.462;2023-05-10T09:32:50;2.70;;;1.80;;
51384;SDS011;37478;55.682;37.462;2023-05-10T09:35:17;5.50;;;2.42;;
51384;SDS011;37478;55.682;37.462;2023-05-10T09:37:43;5.53;;;1.70;;
51384;SDS011;37478;55.682;37.462;2023-05-10T09:40:28;5.47;;;2.30;;
51384;SDS011;37478;55.682;37.462;2023-05-10T09:42:55;4.25;;;1.90;;
51384;SDS011;37478;55.682;37.462;2023-05-10T09:45:22;7.72;;;2.85;;
51384;SDS011;37478;55.682;37.462;2023-05-10T09:47:48;3.72;;;2.40;;
51384;SDS011;37478;55.682;37.462;2023-05-10T09:50:13;7.65;;;2.15;;
51384;SDS011;37478;55.682;37.462;2023-05-10T09:55:16;7.80;;;2.50;;
51384;SDS011;37478;55.682;37.462;2023-05-10T09:57:42;4.38;;;2.17;;
51384;SDS011;37478;55.682;37.462;2023-05-10T10:00:07;4.32;;;2.58;;
51384;SDS011;37478;55.682;37.462;2023-05-10T10:02:35;4.07;;;2.10;;
51384;SDS011;37478;55.682;37.462;2023-05-10T10:05:00;3.35;;;2.15;;
51384;SDS011;37478;55.682;37.462;2023-05-10T10:07:26;2.65;;;2.25;;
51384;SDS011;37478;55.682;37.462;2023-05-10T10:09:51;3.50;;;2.40;;
51384;SDS011;37478;55.682;37.462;2023-05-10T10:12:17;4.05;;;2.10;;
51384;SDS011;37478;55.682;37.462;2023-05-10T10:14:44;3.78;;;2.50;;
51384;SDS011;37478;55.682;37.462;2023-05-10T10:17:10;3.00;;;2.10;;
51384;SDS011;37478;55.682;37.462;2023-05-10T10:19:36;8.93;;;2.65;;
51384;SDS011;37478;55.682;37.462;2023-05-10T10:22:01;3.65;;;2.63;;
51384;SDS011;37478;55.682;37.462;2023-05-10T10:24:26;3.92;;;2.42;;
51384;SDS011;37478;55.682;37.462;2023-05-10T10:26:52;5.05;;;2.33;;
51384;SDS011;37478;55.682;37.462;2023-05-10T10:29:26;5.80;;;2.97;;
51384;SDS011;37478;55.682;37.462;2023-05-10T10:31:59;6.82;;;2.63;;
51384;SDS011;37478;55.682;37.462;2023-05-10T10:34:27;4.78;;;2.72;;
51384;SDS011;37478;55.682;37.462;2023-05-10T10:36:56;4.50;;;2.63;;
51384;SDS011;37478;55.682;37.462;2023-05-10T10:39:27;6.30;;;2.47;;
51384;SDS011;37478;55.682;37.462;2023-05-10T10:41:54;4.45;;;2.63;;
51384;SDS011;37478;55.682;37.462;2023-05-10T10:46:58;3.97;;;2.30;;
51384;SDS011;37478;55.682;37.462;2023-05-10T10:49:24;8.02;;;3.08;;
51384;SDS011;37478;55.682;37.462;2023-05-10T10:54:34;4.85;;;2.63;;
51384;SDS011;37478;55.682;37.462;2023-05-10T10:57:10;5.35;;;2.70;;
51384;SDS011;37478;55.682;37.462;2023-05-10T10:59:35;3.97;;;2.50;;
51384;SDS011;37478;55.682;37.462;2023-05-10T11:02:01;12.90;;;3.05;;
51384;SDS011;37478;55.682;37.462;2023-05-10T11:04:27;10.60;;;3.05;;
51384;SDS011;37478;55.682;37.462;2023-05-10T11:06:52;6.30;;;2.78;;
51384;SDS011;37478;55.682;37.462;2023-05-10T11:09:41;5.60;;;2.70;;
51384;SDS011;37478;55.682;37.462;2023-05-10T11:12:08;3.78;;;2.63;;
51384;SDS011;37478;55.682;37.462;2023-05-10T11:14:33;4.75;;;2.90;;
51384;SDS011;37478;55.682;37.462;2023-05-10T11:16:58;5.40;;;3.10;;
51384;SDS011;37478;55.682;37.462;2023-05-10T11:19:27;6.53;;;3.63;;
51384;SDS011;37478;55.682;37.462;2023-05-10T11:22:13;6.28;;;2.65;;
51384;SDS011;37478;55.682;37.462;2023-05-10T11:24:38;7.65;;;3.00;;
51384;SDS011;37478;55.682;37.462;2023-05-10T11:27:04;4.95;;;3.13;;
51384;SDS011;37478;55.682;37.462;2023-05-10T11:29:29;8.10;;;3.42;;
51384;SDS011;37478;55.682;37.462;2023-05-10T11:31:56;5.57;;;3.30;;
51384;SDS011;37478;55.682;37.462;2023-05-10T11:34:22;6.32;;;2.55;;
51384;SDS011;37478;55.682;37.462;2023-05-10T11:36:50;5.22;;;3.10;;
51384;SDS011;37478;55.682;37.462;2023-05-10T11:39:16;4.40;;;3.00;;
51384;SDS011;37478;55.682;37.462;2023-05-10T11:41:41;6.18;;;3.13;;
51384;SDS011;37478;55.682;37.462;2023-05-10T11:44:08;4.65;;;2.90;;
51384;SDS011;37478;55.682;37.462;2023-05-10T11:46:34;5.40;;;3.20;;
51384;SDS011;37478;55.682;37.462;2023-05-10T11:48:59;7.57;;;3.33;;
51384;SDS011;37478;55.682;37.462;2023-05-10T11:51:35;6.88;;;3.10;;
51384;SDS011;37478;55.682;37.462;2023-05-10T11:54:01;4.47;;;2.70;;
51384;SDS011;37478;55.682;37.462;2023-05-10T11:56:27;4.13;;;3.00;;
51384;SDS011;37478;55.682;37.462;2023-05-10T11:58:53;4.07;;;2.95;;
51384;SDS011;37478;55.682;37.462;2023-05-10T12:01:20;4.47;;;3.22;;
51384;SDS011;37478;55.682;37.462;2023-05-10T12:03:45;4.60;;;2.85;;
51384;SDS011;37478;55.682;37.462;2023-05-10T12:06:11;4.53;;;3.28;;
51384;SDS011;37478;55.682;37.462;2023-05-10T12:08:36;8.10;;;3.22;;
51384;SDS011;37478;55.682;37.462;2023-05-10T12:11:09;6.38;;;2.65;;
51384;SDS011;37478;55.682;37.462;2023-05-10T12:13:38;4.55;;;2.72;;
51384;SDS011;37478;55.682;37.462;2023-05-10T12:16:13;7.38;;;3.08;;
51384;SDS011;37478;55.682;37.462;2023-05-10T12:18:40;7.43;;;2.85;;
51384;SDS011;37478;55.682;37.462;2023-05-10T12:21:05;6.15;;;3.10;;
51384;SDS011;37478;55.682;37.462;2023-05-10T12:23:30;6.07;;;3.95;;
51384;SDS011;37478;55.682;37.462;2023-05-10T12:26:01;3.85;;;2.60;;
51384;SDS011;37478;55.682;37.462;2023-05-10T12:28:29;6.55;;;2.90;;
51384;SDS011;37478;55.682;37.462;2023-05-10T12:30:54;7.70;;;2.90;;
51384;SDS011;37478;55.682;37.462;2023-05-10T12:33:20;4.80;;;2.67;;
51384;SDS011;37478;55.682;37.462;2023-05-10T12:35:49;6.30;;;3.08;;
51384;SDS011;37478;55.682;37.462;2023-05-10T12:41:02;4.95;;;3.08;;
51384;SDS011;37478;55.682;37.462;2023-05-10T12:43:28;9.20;;;2.45;;
51384;SDS011;37478;55.682;37.462;2023-05-10T12:45:54;3.78;;;3.10;;
51384;SDS011;37478;55.682;37.462;2023-05-10T12:48:19;2.63;;;2.40;;
51384;SDS011;37478;55.682;37.462;2023-05-10T12:50:45;5.70;;;2.53;;
51384;SDS011;37478;55.682;37.462;2023-05-10T12:53:10;5.57;;;2.80;;
51384;SDS011;37478;55.682;37.462;2023-05-10T12:55:36;13.13;;;3.05;;
51384;SDS011;37478;55.682;37.462;2023-05-10T12:58:01;8.75;;;2.65;;
51384;SDS011;37478;55.682;37.462;2023-05-10T13:00:26;4.70;;;2.90;;
51384;SDS011;37478;55.682;37.462;2023-05-10T13:02:52;8.55;;;2.95;;
51384;SDS011;37478;55.682;37.462;2023-05-10T13:05:18;5.97;;;2.80;;
51384;SDS011;37478;55.682;37.462;2023-05-10T13:07:43;6.95;;;3.20;;
51384;SDS011;37478;55.682;37.462;2023-05-10T13:10:09;6.47;;;2.80;;
51384;SDS011;37478;55.682;37.462;2023-05-10T13:12:34;5.32;;;3.00;;
51384;SDS011;37478;55.682;37.462;2023-05-10T13:15:00;4.53;;;2.90;;
51384;SDS011;37478;55.682;37.462;2023-05-10T13:17:25;5.55;;;2.97;;
51384;SDS011;37478;55.682;37.462;2023-05-10T13:19:51;5.22;;;2.40;;
51384;SDS011;37478;55.682;37.462;2023-05-10T13:22:16;5.57;;;2.60;;
51384;SDS011;37478;55.682;37.462;2023-05-10T13:24:41;5.40;;;3.00;;
51384;SDS011;37478;55.682;37.462;2023-05-10T13:27:07;7.60;;;3.40;;
51384;SDS011;37478;55.682;37.462;2023-05-10T13:29:32;4.65;;;3.00;;
51384;SDS011;37478;55.682;37.462;2023-05-10T13:31:58;7.88;;;3.22;;
51384;SDS011;37478;55.682;37.462;2023-05-10T13:34:23;5.82;;;2.80;;
51384;SDS011;37478;55.682;37.462;2023-05-10T13:36:49;4.90;;;2.70;;
51384;SDS011;37478;55.682;37.462;2023-05-10T13:39:14;4.70;;;2.58;;
51384;SDS011;37478;55.682;37.462;2023-05-10T13:41:40;4.82;;;2.83;;
51384;SDS011;37478;55.682;37.462;2023-05-10T13:44:05;4.15;;;2.83;;
51384;SDS011;37478;55.682;37.462;2023-05-10T13:46:30;5.78;;;2.63;;
51384;SDS011;37478;55.682;37.462;2023-05-10T13:48:56;3.53;;;2.40;;
51384;SDS011;37478;55.682;37.462;2023-05-10T13:51:22;9.85;;;2.63;;
51384;SDS011;37478;55.682;37.462;2023-05-10T13:53:47;4.50;;;2.60;;
51384;SDS011;37478;55.682;37.462;2023-05-10T13:56:12;5.63;;;2.78;;
51384;SDS011;37478;55.682;37.462;2023-05-10T13:58:38;5.28;;;2.60;;
51384;SDS011;37478;55.682;37.462;2023-05-10T14:01:03;5.45;;;2.58;;
51384;SDS011;37478;55.682;37.462;2023-05-10T14:03:29;4.38;;;2.42;;
51384;SDS011;37478;55.682;37.462;2023-05-10T14:05:55;6.18;;;2.70;;
51384;SDS011;37478;55.682;37.462;2023-05-10T14:08:20;4.13;;;2.92;;
51384;SDS011;37478;55.682;37.462;2023-05-10T14:10:45;10.15;;;2.90;;
51384;SDS011;37478;55.682;37.462;2023-05-10T14:13:11;5.05;;;2.95;;
51384;SDS011;37478;55.682;37.462;2023-05-10T14:15:37;6.35;;;3.10;;
51384;SDS011;37478;55.682;37.462;2023-05-10T14:18:02;3.78;;;2.45;;
51384;SDS011;37478;55.682;37.462;2023-05-10T14:20:27;3.20;;;2.22;;
51384;SDS011;37478;55.682;37.462;2023-05-10T14:22:53;8.07;;;2.95;;
51384;SDS011;37478;55.682;37.462;2023-05-10T14:25:19;6.60;;;3.25;;
51384;SDS011;37478;55.682;37.462;2023-05-10T14:27:44;5.45;;;3.10;;
51384;SDS011;37478;55.682;37.462;2023-05-10T14:30:10;6.10;;;2.88;;
51384;SDS011;37478;55.682;37.462;2023-05-10T14:32:35;5.82;;;2.58;;
51384;SDS011;37478;55.682;37.462;2023-05-10T14:35:01;8.27;;;2.90;;
51384;SDS011;37478;55.682;37.462;2023-05-10T14:37:27;5.47;;;3.03;;
51384;SDS011;37478;55.682;37.462;2023-05-10T14:39:52;5.15;;;2.70;;
51384;SDS011;37478;55.682;37.462;2023-05-10T14:42:17;8.63;;;3.05;;
51384;SDS011;37478;55.682;37.462;2023-05-10T14:44:43;3.80;;;2.80;;
51384;SDS011;37478;55.682;37.462;2023-05-10T14:47:08;3.75;;;2.63;;
51384;SDS011;37478;55.682;37.462;2023-05-10T14:49:33;8.38;;;3.05;;
51384;SDS011;37478;55.682;37.462;2023-05-10T14:51:59;7.65;;;3.33;;
51384;SDS011;37478;55.682;37.462;2023-05-10T14:54:24;6.10;;;2.90;;
51384;SDS011;37478;55.682;37.462;2023-05-10T14:56:49;4.75;;;2.78;;
51384;SDS011;37478;55.682;37.462;2023-05-10T14:59:15;7.85;;;3.08;;
51384;SDS011;37478;55.682;37.462;2023-05-10T15:01:40;5.05;;;2.90;;